Time;durP1;ratioP1;P1;durP2;ratioP2;P2;SDS_P1;SDS_P2;PMS_P1;PMS_P2;Temp;Humidity;BMP_temperature;BMP_pressure;BME280_temperature;BME280_humidity;BME280_pressure;Samples;Min_cycle;Max_cycle;Signal;HPM_P1;HPM_P2
2021/01/28 00:02:17;;;;;;;150.57;56.33;;;;;;;-1.93;83.10;98649.19;4255906;82;21507;-82
2021/01/28 00:08:19;;;;;;;144.03;56.20;;;;;;;-1.80;83.24;98648.34;4251462;82;21670;-82
2021/01/28 00:14:21;;;;;;;138.87;54.93;;;;;;;-1.79;83.11;98645.92;4243257;82;21209;-82
2021/01/28 00:20:34;;;;;;;136.40;53.87;;;;;;;-1.86;82.94;98637.48;4246182;82;22061;-82
2021/01/28 00:26:36;;;;;;;141.20;57.57;;;;;;;-2.07;82.93;98631.77;4243307;82;21184;-82
2021/01/28 00:32:37;;;;;;;140.60;54.53;;;;;;;-2.08;83.27;98611.95;4251916;82;21636;-83
2021/01/28 00:38:40;;;;;;;151.63;56.43;;;;;;;-2.05;83.12;98611.38;4248650;82;21675;-82
2021/01/28 00:44:42;;;;;;;132.27;49.93;;;;;;;-2.20;82.98;98611.16;4250306;82;21384;-82
2021/01/28 00:50:44;;;;;;;141.23;55.57;;;;;;;-2.20;83.02;98613.84;4262555;82;21322;-81
2021/01/28 00:56:46;;;;;;;144.37;58.13;;;;;;;-2.20;83.58;98610.35;4248171;82;21165;-82
2021/01/28 01:02:48;;;;;;;144.80;57.47;;;;;;;-2.14;83.85;98601.90;4251100;82;21213;-81
2021/01/28 01:08:49;;;;;;;138.30;54.83;;;;;;;-2.03;83.98;98595.22;4249782;82;21779;-81
2021/01/28 01:15:06;;;;;;;136.40;55.10;;;;;;;-1.88;83.99;98594.09;4578308;76;22978;-81
2021/01/28 01:21:09;;;;;;;131.18;54.20;;;;;;;-1.88;83.95;98582.78;4483862;78;21148;-82
2021/01/28 01:27:12;;;;;;;142.17;53.67;;;;;;;-1.85;83.93;98575.47;4420294;78;21161;-83
2021/01/28 01:33:13;;;;;;;129.67;53.20;;;;;;;-1.86;83.54;98574.43;4441417;78;21287;-81
2021/01/28 01:39:34;;;;;;;118.63;47.97;;;;;;;-1.94;83.50;98570.59;4424908;79;21593;-83
2021/01/28 01:45:46;;;;;;;126.00;48.97;;;;;;;-2.09;83.44;98556.73;4458711;77;21166;-82
2021/01/28 01:51:49;;;;;;;125.30;49.20;;;;;;;-2.10;83.95;98562.64;4434730;78;21185;-83
2021/01/28 01:57:58;;;;;;;119.33;48.57;;;;;;;-2.01;84.17;98556.02;4440239;78;21165;-82
2021/01/28 02:04:02;;;;;;;122.03;46.73;;;;;;;-2.03;83.83;98553.64;4432986;78;21164;-82
2021/01/28 02:10:23;;;;;;;112.77;47.10;;;;;;;-2.06;83.78;98540.84;4440884;78;21330;-82
2021/01/28 02:17:04;;;;;;;111.83;45.47;;;;;;;-2.12;83.68;98536.70;4438592;78;21158;-82
2021/01/28 02:23:34;;;;;;;117.15;47.08;;;;;;;-2.29;83.38;98533.88;4417919;79;21178;-82
2021/01/28 02:29:37;;;;;;;112.03;45.63;;;;;;;-2.52;83.18;98531.45;4418995;79;21322;-82
2021/01/28 02:35:39;;;;;;;126.17;49.57;;;;;;;-2.77;82.86;98522.61;4386201;79;21158;-82
2021/01/28 02:41:44;;;;;;;127.80;51.80;;;;;;;-2.90;83.34;98526.08;4421101;78;21326;-82
2021/01/28 02:47:55;;;;;;;;;;;;;;;-2.96;83.41;98525.94;4434499;79;21295;-81
2021/01/28 02:54:14;;;;;;;113.57;45.67;;;;;;;-3.26;82.87;98521.97;4421767;78;20121;-82
2021/01/28 03:00:22;;;;;;;112.33;43.43;;;;;;;-3.56;82.79;98517.17;4437466;78;21504;-82
2021/01/28 03:06:23;;;;;;;97.30;40.67;;;;;;;-3.77;82.93;98507.36;4437903;79;21162;-81
2021/01/28 03:12:27;;;;;;;107.33;42.07;;;;;;;-3.88;83.21;98497.13;4438536;78;21186;-82
2021/01/28 03:18:33;;;;;;;92.33;38.10;;;;;;;-3.91;83.22;98489.69;4432655;78;22527;-81
2021/01/28 03:24:36;;;;;;;90.50;36.30;;;;;;;-4.13;82.77;98486.84;4437141;77;21154;-81
2021/01/28 03:30:45;;;;;;;82.57;31.50;;;;;;;-4.44;82.74;98486.53;4436766;78;21136;-81
2021/01/28 03:36:47;;;;;;;70.37;30.33;;;;;;;-4.53;83.30;98485.61;4410153;79;21136;-81
2021/01/28 03:53:23;;;;;;;74.33;29.03;;;;;;;-4.46;83.17;98476.67;4499981;77;22964;-79
2021/01/28 03:59:30;;;;;;;78.67;31.53;;;;;;;-4.64;83.18;98478.82;4431929;78;21193;-81
2021/01/28 04:16:06;;;;;;;58.30;25.73;;;;;;;-5.28;82.44;98453.25;4495938;75;32706;-79
2021/01/28 04:22:09;;;;;;;70.57;26.53;;;;;;;-5.51;82.74;98466.84;4323346;81;21187;-78
2021/01/28 04:28:12;;;;;;;57.70;23.83;;;;;;;-5.64;82.62;98454.20;4305092;81;21589;-79
2021/01/28 04:34:32;;;;;;;67.67;25.00;;;;;;;-5.69;83.00;98436.92;4434866;79;23006;-78
2021/01/28 04:40:50;;;;;;;56.37;22.77;;;;;;;-5.75;83.05;98429.26;4376146;80;21325;-81
2021/01/28 04:46:56;;;;;;;63.83;25.17;;;;;;;-5.82;82.62;98426.15;4339003;80;24642;-78
2021/01/28 04:53:24;;;;;;;72.27;27.63;;;;;;;-5.88;83.68;98426.76;4239322;83;21240;-79
2021/01/28 04:59:39;;;;;;;74.37;28.10;;;;;;;-5.82;82.98;98418.95;4191479;83;21194;-80
2021/01/28 05:05:41;;;;;;;91.23;33.27;;;;;;;-5.82;83.55;98421.63;4234127;83;21646;-79
2021/01/28 05:11:59;;;;;;;102.00;39.97;;;;;;;-5.89;82.66;98414.52;4580087;76;22911;-79
2021/01/28 05:18:42;;;;;;;110.00;40.80;;;;;;;-6.18;82.56;98399.07;4438753;78;21767;-79
2021/01/28 05:25:32;;;;;;;98.57;36.43;;;;;;;-6.29;83.32;98391.45;4170976;83;21206;-79
2021/01/28 05:31:58;;;;;;;83.00;33.93;;;;;;;-6.27;82.87;98392.77;4201586;83;21230;-80
2021/01/28 05:38:13;;;;;;;92.70;35.23;;;;;;;-6.35;83.12;98388.05;4198983;83;22360;-81
2021/01/28 05:44:30;;;;;;;101.23;39.47;;;;;;;-6.36;83.10;98393.13;4197958;83;21775;-79
2021/01/28 05:50:33;;;;;;;126.30;43.40;;;;;;;-6.43;82.69;98380.66;4201397;83;21167;-79
2021/01/28 05:57:08;;;;;;;116.83;43.33;;;;;;;-6.51;82.93;98374.61;4194556;83;21345;-79
2021/01/28 06:03:48;;;;;;;110.43;39.73;;;;;;;-6.64;82.59;98361.95;4197769;83;21206;-79
2021/01/28 06:10:28;;;;;;;110.70;38.93;;;;;;;-6.89;82.42;98344.30;4444269;79;23343;-80
2021/01/28 06:17:16;;;;;;;102.57;38.93;;;;;;;-7.03;82.75;98343.91;4369026;80;21290;-78
2021/01/28 06:24:15;;;;;;;127.77;45.10;;;;;;;-6.89;83.14;98345.64;4498435;77;22981;-78
2021/01/28 06:30:31;;;;;;;164.77;52.30;;;;;;;-6.97;82.89;98354.77;4273434;81;21178;-78
2021/01/28 06:36:58;;;;;;;203.30;58.67;;;;;;;-7.02;82.79;98340.97;4312517;81;22135;-78
2021/01/28 06:43:16;;;;;;;153.62;47.58;;;;;;;-7.08;82.73;98327.97;4456036;78;21228;-78
2021/01/28 06:49:42;;;;;;;118.63;42.90;;;;;;;-7.00;83.06;98332.16;4567921;76;23811;-76
2021/01/28 06:56:06;;;;;;;96.70;37.57;;;;;;;-7.00;83.01;98324.17;4339319;80;21510;-79
2021/01/28 07:03:06;;;;;;;84.73;34.87;;;;;;;-6.96;82.96;98325.75;4506579;77;22354;-77
2021/01/28 07:09:30;;;;;;;109.87;41.63;;;;;;;-6.95;83.23;98320.14;4439832;78;21345;-80
2021/01/28 07:15:36;;;;;;;97.43;40.97;;;;;;;-6.84;83.23;98308.87;4424779;78;21310;-78
2021/01/28 07:21:48;;;;;;;112.03;41.37;;;;;;;-6.74;83.29;98310.13;4425662;78;21830;-78
2021/01/28 07:28:15;;;;;;;120.03;45.63;;;;;;;-6.68;83.65;98305.02;4326198;80;21294;-78
2021/01/28 07:34:16;;;;;;;142.27;51.23;;;;;;;-6.48;84.08;98288.06;4334385;81;21199;-78
2021/01/28 07:41:05;;;;;;;155.70;51.83;;;;;;;-6.13;84.46;98272.48;4267011;81;21651;-79
2021/01/28 07:47:44;;;;;;;149.00;55.63;;;;;;;-5.39;84.89;98253.86;4566700;76;23409;-77
2021/01/28 07:53:50;;;;;;;145.77;55.33;;;;;;;-4.77;85.53;98243.22;4498232;77;21338;-77
2021/01/28 07:59:54;;;;;;;;;;;;;;;-3.85;85.12;98239.28;4504336;77;21175;-79
2021/01/28 08:05:56;;;;;;;34.47;15.87;;;;;;;-2.97;85.86;98231.10;4499012;77;20280;-79
2021/01/28 08:11:58;;;;;;;41.33;20.53;;;;;;;-2.04;84.13;98220.05;4499654;77;21334;-78
2021/01/28 08:18:13;;;;;;;30.40;12.03;;;;;;;-1.27;84.06;98195.42;4341770;80;21620;-79
2021/01/28 08:24:35;;;;;;;26.50;12.00;;;;;;;-0.64;81.43;98183.35;4344975;80;21193;-78
2021/01/28 08:30:37;;;;;;;26.33;11.60;;;;;;;-0.27;81.37;98186.59;4341524;80;21212;-78
2021/01/28 08:36:51;;;;;;;26.73;11.68;;;;;;;0.39;80.94;98188.20;4333568;80;21347;-78
2021/01/28 08:43:07;;;;;;;27.60;14.00;;;;;;;1.07;80.97;98191.65;4188095;80;22275;-79
2021/01/28 08:49:17;;;;;;;29.92;13.83;;;;;;;1.68;80.72;98196.64;4042171;86;21213;-78
2021/01/28 08:55:31;;;;;;;28.60;13.93;;;;;;;2.37;80.03;98186.46;4113390;84;21330;-79
2021/01/28 09:01:44;;;;;;;28.32;15.20;;;;;;;3.11;79.63;98182.07;4122709;85;21716;-78
2021/01/28 09:07:57;;;;;;;27.98;12.95;;;;;;;3.59;77.08;98187.75;4039136;85;21237;-78
2021/01/28 09:14:32;;;;;;;22.73;11.43;;;;;;;3.65;76.62;98179.59;4112809;84;22017;-78
2021/01/28 09:20:37;;;;;;;21.35;11.08;;;;;;;3.86;73.69;98161.17;4111783;85;21187;-78
2021/01/28 09:26:39;;;;;;;19.50;11.68;;;;;;;4.47;74.72;98154.06;4113454;85;21204;-78
2021/01/28 09:32:41;;;;;;;25.97;12.93;;;;;;;4.76;72.39;98144.59;4183847;83;21237;-82
2021/01/28 09:39:15;;;;;;;25.62;12.90;;;;;;;5.13;72.37;98129.42;4180613;82;21340;-79
2021/01/28 09:45:26;;;;;;;18.98;10.65;;;;;;;4.65;62.18;98111.06;4181407;83;21208;-79
2021/01/28 09:51:33;;;;;;;20.17;9.58;;;;;;;4.48;68.88;98091.14;4182946;83;21196;-78
2021/01/28 09:57:35;;;;;;;18.77;9.48;;;;;;;4.77;66.43;98081.08;4182259;83;21179;-80
2021/01/28 10:03:38;;;;;;;14.65;8.03;;;;;;;4.47;65.87;98078.18;4182118;83;21797;-80
2021/01/28 10:09:41;;;;;;;17.48;8.00;;;;;;;4.13;63.40;98072.25;4182348;83;21192;-81
2021/01/28 10:15:43;;;;;;;16.00;8.80;;;;;;;3.68;63.24;98057.69;4182181;83;21179;-81
2021/01/28 10:21:45;;;;;;;15.35;8.65;;;;;;;3.50;63.71;98049.70;4181963;83;21210;-81
2021/01/28 10:27:47;;;;;;;17.12;9.13;;;;;;;3.16;63.92;98030.35;4113995;85;21168;-81
2021/01/28 10:33:51;;;;;;;17.70;9.20;;;;;;;3.00;64.43;98032.30;4112719;85;21784;-82
2021/01/28 10:39:53;;;;;;;21.35;9.90;;;;;;;3.23;63.02;98016.81;4112921;85;21221;-83
2021/01/28 10:45:55;;;;;;;24.32;10.45;;;;;;;3.18;62.15;98003.75;4122840;84;21199;-83
2021/01/28 10:51:58;;;;;;;23.02;11.03;;;;;;;3.19;62.62;97983.67;4099728;86;21156;-84
2021/01/28 10:58:00;;;;;;;20.27;9.65;;;;;;;3.47;64.24;97982.77;4206321;83;21248;-83
2021/01/28 11:04:02;;;;;;;15.83;9.03;;;;;;;3.64;63.35;97980.46;4187944;83;23932;-84
2021/01/28 11:10:05;;;;;;;17.00;9.08;;;;;;;3.98;65.53;97962.59;4134780;85;21199;-83
2021/01/28 11:16:08;;;;;;;16.40;9.60;;;;;;;4.11;63.33;97958.61;4187659;83;21171;-84
2021/01/28 11:22:10;;;;;;;17.45;10.10;;;;;;;4.27;64.58;97943.86;4181510;84;21173;-84
2021/01/28 11:28:11;;;;;;;17.95;8.58;;;;;;;4.33;63.60;97929.44;4149242;84;21196;-83
2021/01/28 11:34:13;;;;;;;19.70;9.63;;;;;;;4.10;63.69;97916.43;4189456;83;21151;-83
2021/01/28 11:40:21;;;;;;;18.95;9.45;;;;;;;4.04;64.40;97895.61;4134815;85;21219;-84
2021/01/28 11:46:22;;;;;;;19.12;8.93;;;;;;;4.08;63.98;97901.10;4170358;83;21744;-83
2021/01/28 11:52:24;;;;;;;16.32;8.50;;;;;;;3.92;63.87;97891.72;4131180;83;21169;-83
2021/01/28 11:58:34;;;;;;;17.35;8.90;;;;;;;4.05;64.27;97877.45;4163034;84;22098;-83
2021/01/28 12:04:39;;;;;;;20.48;10.32;;;;;;;4.04;64.81;97867.17;4161685;84;21396;-83
2021/01/28 12:10:51;;;;;;;17.32;9.38;;;;;;;3.98;64.53;97851.58;4163749;84;21241;-83
2021/01/28 12:16:53;;;;;;;17.37;9.05;;;;;;;3.87;64.18;97843.27;4100374;84;21198;-83
2021/01/28 12:22:57;;;;;;;16.42;8.70;;;;;;;3.86;65.00;97834.94;4092030;85;21222;-83
2021/01/28 12:28:59;;;;;;;16.48;9.25;;;;;;;3.71;64.10;97822.85;3991575;84;31908;-83
2021/01/28 12:35:01;;;;;;;20.15;9.63;;;;;;;3.75;64.99;97822.34;4032881;86;21646;-84
2021/01/28 12:41:03;;;;;;;20.35;9.33;;;;;;;3.84;64.93;97808.00;4032045;86;21820;-84
2021/01/28 12:47:05;;;;;;;17.05;8.30;;;;;;;3.88;64.53;97800.73;4000235;85;21260;-84
2021/01/28 12:53:17;;;;;;;16.75;8.73;;;;;;;3.86;65.51;97795.69;3937502;88;21226;-84
2021/01/28 12:59:21;;;;;;;17.85;8.58;;;;;;;3.90;65.81;97782.98;3922810;83;34463;-83
2021/01/28 13:05:22;;;;;;;23.57;10.75;;;;;;;3.96;65.56;97785.59;4236786;82;21624;-85
2021/01/28 13:11:31;;;;;;;27.42;11.00;;;;;;;4.04;65.80;97785.17;4237142;82;21719;-84
2021/01/28 13:18:19;;;;;;;21.00;10.25;;;;;;;4.14;65.92;97783.20;4235556;82;21826;-85
2021/01/28 13:24:21;;;;;;;32.95;14.05;;;;;;;4.17;65.98;97761.59;4233012;82;22500;-86
2021/01/28 13:30:25;;;;;;;33.08;14.85;;;;;;;4.12;66.13;97755.13;4230592;82;21193;-85
2021/01/28 13:36:33;;;;;;;91.67;31.68;;;;;;;4.15;66.48;97746.27;4227004;82;21198;-85
2021/01/28 13:42:35;;;;;;;51.70;20.92;;;;;;;4.09;66.00;97745.58;4235498;82;21176;-86
2021/01/28 13:48:37;;;;;;;68.87;28.90;;;;;;;3.97;66.30;97748.48;4277823;81;21246;-86
2021/01/28 13:54:46;;;;;;;72.65;31.10;;;;;;;3.87;66.16;97732.86;4283485;81;21191;-86
2021/01/28 14:00:50;;;;;;;36.58;16.70;;;;;;;3.69;66.80;97720.93;4285093;82;21653;-86
2021/01/28 14:06:51;;;;;;;32.20;15.45;;;;;;;3.47;66.68;97718.42;4283918;81;21335;-87
2021/01/28 14:13:02;;;;;;;32.98;15.43;;;;;;;3.33;66.98;97718.16;4282319;81;21366;-87
2021/01/28 14:19:04;;;;;;;27.60;12.40;;;;;;;3.24;67.67;97718.95;4281911;81;21128;-86
2021/01/28 14:25:17;;;;;;;24.80;11.15;;;;;;;3.23;67.58;97713.91;4283909;81;21587;-86
2021/01/28 14:31:19;;;;;;;22.17;11.28;;;;;;;3.12;67.95;97686.64;4277724;82;21149;-86
2021/01/28 14:37:20;;;;;;;27.67;12.90;;;;;;;3.11;67.98;97683.73;4282076;81;21175;-86
2021/01/28 14:43:31;;;;;;;22.73;11.68;;;;;;;3.01;68.20;97684.30;4283863;81;21181;-86
2021/01/28 14:49:36;;;;;;;22.70;11.85;;;;;;;2.91;68.27;97662.67;4241306;82;21221;-86
2021/01/28 14:55:38;;;;;;;30.55;13.13;;;;;;;2.82;68.63;97658.06;4242511;82;21382;-86
2021/01/28 15:01:48;;;;;;;29.57;14.38;;;;;;;2.74;68.54;97661.00;4250389;82;21185;-86
2021/01/28 15:07:49;;;;;;;29.92;14.35;;;;;;;2.65;69.14;97657.70;4245520;82;21618;-87
2021/01/28 15:13:57;;;;;;;35.45;15.20;;;;;;;2.65;69.19;97653.09;4242894;82;21177;-86
2021/01/28 15:19:59;;;;;;;30.90;14.70;;;;;;;2.63;69.25;97650.55;4237212;82;21629;-87
2021/01/28 15:26:01;;;;;;;33.50;15.32;;;;;;;2.52;69.29;97644.14;4241935;82;21200;-86
2021/01/28 15:32:10;;;;;;;31.20;14.87;;;;;;;2.43;69.74;97641.62;4248548;82;21190;-87
2021/01/28 15:38:20;;;;;;;33.30;16.45;;;;;;;2.36;69.83;97625.84;4243070;82;21207;-87
2021/01/28 15:45:11;;;;;;;38.73;20.08;;;;;;;2.30;70.09;97616.47;4250463;81;21201;-86
2021/01/28 15:51:13;;;;;;;51.58;25.15;;;;;;;2.21;70.08;97612.61;4258685;81;21328;-87
2021/01/28 15:57:15;;;;;;;45.90;20.80;;;;;;;2.05;70.38;97602.41;4248298;83;21189;-86
2021/01/28 16:03:18;;;;;;;43.83;22.82;;;;;;;1.96;70.42;97574.84;4266825;81;21220;-87
2021/01/28 16:09:42;;;;;;;49.77;22.62;;;;;;;1.89;71.06;97568.52;4242758;81;21171;-85
2021/01/28 16:15:43;;;;;;;50.20;21.75;;;;;;;1.90;71.24;97568.72;4241137;81;21181;-86
2021/01/28 16:21:46;;;;;;;48.23;20.68;;;;;;;1.88;71.51;97562.33;4251453;81;21225;-86
2021/01/28 16:27:51;;;;;;;44.25;18.62;;;;;;;1.87;71.55;97555.37;4292728;81;21146;-86
2021/01/28 16:41:16;;;;;;;37.63;18.23;;;;;;;1.81;71.87;97547.91;4290376;81;46003;-86
2021/01/28 16:47:18;;;;;;;42.48;19.62;;;;;;;1.81;72.03;97543.30;4285327;81;60247;-87
2021/01/28 16:53:19;;;;;;;49.58;21.12;;;;;;;1.78;72.37;97533.77;4252013;82;21157;-87
2021/01/28 16:59:29;;;;;;;48.15;20.95;;;;;;;1.75;72.46;97532.58;4252789;82;21899;-86
2021/01/28 17:12:51;;;;;;;41.13;19.52;;;;;;;1.71;72.71;97512.05;4316835;81;21148;-87
2021/01/28 17:18:52;;;;;;;35.43;16.62;;;;;;;1.71;72.57;97512.81;4311344;81;21762;-86
2021/01/28 17:24:54;;;;;;;33.60;15.53;;;;;;;1.67;73.08;97504.44;4284660;81;21369;-87
2021/01/28 17:30:57;;;;;;;26.30;13.72;;;;;;;1.67;73.36;97501.17;4295229;81;21172;-87
2021/01/28 17:37:24;;;;;;;27.50;12.40;;;;;;;1.70;73.44;97493.73;4279585;81;21521;-86
2021/01/28 17:43:35;;;;;;;25.88;12.33;;;;;;;1.74;73.60;97486.48;4280352;81;21220;-86
2021/01/28 17:49:39;;;;;;;22.52;11.57;;;;;;;1.74;73.87;97485.72;4279682;81;21199;-87
2021/01/28 17:56:04;;;;;;;27.32;13.48;;;;;;;1.69;74.07;97469.25;4182729;83;66999;-87
2021/01/28 18:02:09;;;;;;;27.77;12.78;;;;;;;1.62;74.30;97465.03;4031457;85;10000367;-86
2021/01/28 18:08:10;;;;;;;27.15;13.43;;;;;;;1.63;74.48;97461.98;4147436;84;21182;-87
2021/01/28 18:14:13;;;;;;;24.02;10.50;;;;;;;1.71;74.99;97462.15;4231785;83;21414;-87
2021/01/28 18:27:10;;;;;;;32.00;14.65;;;;;;;1.81;75.82;97450.77;4217682;82;21211;-88
2021/01/28 18:33:22;;;;;;;22.85;10.65;;;;;;;1.79;75.93;97447.09;4224596;83;22134;-86
2021/01/28 18:39:40;;;;;;;25.12;11.85;;;;;;;1.77;76.94;97442.60;4186448;82;21176;-87
2021/01/28 18:45:42;;;;;;;28.30;11.50;;;;;;;1.69;76.32;97446.31;4189338;84;21221;-87
2021/01/28 18:51:45;;;;;;;33.02;15.00;;;;;;;1.62;76.73;97440.76;4168031;84;21185;-87
2021/01/28 18:57:46;;;;;;;48.25;17.55;;;;;;;1.61;76.87;97452.11;4178754;84;21205;-87
2021/01/28 19:03:48;;;;;;;28.90;14.15;;;;;;;1.57;77.05;97451.82;4066613;84;9999999;-86
2021/01/28 19:09:49;;;;;;;30.10;15.25;;;;;;;1.49;77.34;97449.55;4187148;84;21173;-87
2021/01/28 19:15:51;;;;;;;24.45;12.78;;;;;;;1.40;77.65;97450.31;4195216;84;21172;-87
2021/01/28 19:21:53;;;;;;;24.85;11.65;;;;;;;1.36;77.95;97444.63;4205861;84;21753;-87
2021/01/28 19:27:56;;;;;;;22.45;11.85;;;;;;;1.25;77.87;97443.03;4167052;83;21802;-86
2021/01/28 19:33:58;;;;;;;22.75;12.05;;;;;;;1.06;78.41;97435.47;4147354;83;21253;-86
2021/01/28 19:39:59;;;;;;;36.30;19.25;;;;;;;1.06;78.41;97435.47;4159636;84;21168;-86
2021/01/28 19:46:03;;;;;;;29.23;13.75;;;;;;;1.06;78.98;97436.82;4252430;82;21161;-87
2021/01/28 19:52:07;;;;;;;31.73;17.42;;;;;;;1.01;79.38;97437.88;4160851;83;21213;-86
2021/01/28 19:58:10;;;;;;;29.42;16.48;;;;;;;1.09;79.67;97429.38;4157031;83;21239;-86
2021/01/28 20:04:12;;;;;;;36.93;16.75;;;;;;;1.09;79.64;97423.44;3965355;85;9999599;-88
2021/01/28 20:10:15;;;;;;;27.48;15.35;;;;;;;1.15;79.70;97418.55;4257204;82;21331;-86
2021/01/28 20:16:19;;;;;;;29.00;15.18;;;;;;;1.04;79.57;97422.35;4262957;82;21294;-86
2021/01/28 20:22:23;;;;;;;35.98;16.25;;;;;;;0.81;79.98;97413.35;4258595;82;21338;-86
2021/01/28 20:28:31;;;;;;;39.67;20.37;;;;;;;0.76;80.39;97419.00;4251336;82;21236;-86
2021/01/28 20:34:32;;;;;;;39.45;19.15;;;;;;;0.74;81.02;97417.21;4252625;82;21537;-86
2021/01/28 20:40:37;;;;;;;44.70;22.52;;;;;;;0.62;81.08;97391.73;4252220;82;21207;-85
2021/01/28 20:46:40;;;;;;;38.00;18.95;;;;;;;0.71;81.24;97389.63;4251569;82;21745;-86
2021/01/28 20:52:43;;;;;;;39.55;17.90;;;;;;;0.87;81.82;97403.08;4250538;82;21193;-86
2021/01/28 20:58:47;;;;;;;40.05;18.85;;;;;;;0.87;81.82;97403.08;4250431;82;21343;-85
2021/01/28 21:04:49;;;;;;;32.95;16.35;;;;;;;0.78;81.84;97400.59;4251754;82;21169;-86
2021/01/28 21:10:50;;;;;;;37.00;18.42;;;;;;;0.89;81.58;97418.34;4251584;82;21436;-87
2021/01/28 21:16:52;;;;;;;44.18;19.25;;;;;;;0.84;82.06;97410.52;4250513;82;21210;-86
2021/01/28 21:22:56;;;;;;;43.30;20.55;;;;;;;0.88;82.39;97404.63;4252722;82;21350;-87
2021/01/28 21:28:58;;;;;;;53.42;25.72;;;;;;;0.89;82.32;97403.52;4212474;82;22422;-86
2021/01/28 21:34:59;;;;;;;71.75;28.07;;;;;;;0.89;82.32;97403.52;4216094;81;21190;-86
2021/01/28 21:41:15;;;;;;;64.70;25.23;;;;;;;0.96;82.74;97396.38;4384475;79;23009;-86
2021/01/28 21:47:16;;;;;;;71.15;30.02;;;;;;;0.95;82.77;97400.21;4323639;80;21184;-87
2021/01/28 21:53:22;;;;;;;63.00;26.45;;;;;;;0.90;82.66;97397.78;4326311;80;21271;-86
2021/01/28 21:59:26;;;;;;;72.58;28.57;;;;;;;0.85;82.89;97413.41;4322136;81;21723;-87
2021/01/28 22:05:28;;;;;;;70.05;29.48;;;;;;;0.87;83.10;97410.61;4331791;80;21153;-87
2021/01/28 22:11:32;;;;;;;85.47;31.55;;;;;;;0.90;83.23;97408.55;4321091;80;21196;-86
2021/01/28 22:17:35;;;;;;;84.83;31.25;;;;;;;0.87;83.45;97401.17;4330144;80;21193;-87
2021/01/28 22:23:38;;;;;;;64.85;28.57;;;;;;;0.87;83.45;97401.17;4326974;80;21344;-86
2021/01/28 22:29:40;;;;;;;64.65;27.22;;;;;;;0.90;83.69;97395.64;4330198;80;21181;-88
2021/01/28 22:35:46;;;;;;;57.78;25.72;;;;;;;0.86;83.81;97404.22;4328921;80;21499;-87
2021/01/28 22:41:49;;;;;;;53.63;24.12;;;;;;;0.90;83.89;97401.03;4333912;80;21890;-88
2021/01/28 22:47:52;;;;;;;58.45;26.60;;;;;;;0.89;83.60;97404.87;4348395;80;21208;-87
2021/01/28 22:53:54;;;;;;;51.80;24.30;;;;;;;0.83;84.22;97402.23;4339649;80;21206;-88
2021/01/28 23:00:19;;;;;;;58.60;26.33;;;;;;;0.92;84.14;97400.13;4338749;80;21164;-88
2021/01/28 23:06:22;;;;;;;51.60;26.57;;;;;;;0.93;84.46;97401.12;4338662;80;21189;-87
2021/01/28 23:12:24;;;;;;;53.60;27.07;;;;;;;0.89;84.49;97392.74;4343314;80;21188;-88
2021/01/28 23:18:29;;;;;;;60.58;26.95;;;;;;;0.93;84.50;97380.13;4340547;80;22352;-87
2021/01/28 23:24:40;;;;;;;61.45;29.82;;;;;;;0.99;84.60;97389.48;4337214;80;22367;-88
2021/01/28 23:30:42;;;;;;;61.08;30.62;;;;;;;0.79;84.76;97364.98;4339982;80;21648;-87
2021/01/28 23:36:44;;;;;;;55.45;28.62;;;;;;;0.89;84.84;97393.50;4338428;80;21947;-88
2021/01/28 23:42:46;;;;;;;78.92;35.80;;;;;;;0.89;84.96;97375.99;4329789;80;21188;-87
2021/01/28 23:48:47;;;;;;;87.25;38.23;;;;;;;0.85;85.10;97377.05;4162908;84;21254;-87
2021/01/28 23:54:49;;;;;;;83.60;39.23;;;;;;;0.78;85.13;97380.94;4318580;80;21202;-87
